Impacts TAF Board
For situational awareness. Not to be used for flight planning purposes.
IDs:

KLGA - New York/La Guardia, NY, US

Issued at 2343 UTC 15 Oct 2018
Updated at 2354 UTC 15 Oct 2018
Potential Impact None Slight Moderate High
Time<<17/00Z 17/01Z 17/02Z 17/03Z 17/04Z 17/05Z 17/06Z 17/07Z 17/08Z 17/09Z 17/10Z 17/11Z 17/12Z
Type PRVL PRVL PRVL PRVL PRVL PRVL
VIS >6 >6 >6 >6 >6 >6
CIG -- -- -- -- -- --
Cover FEW FEW FEW FEW FEW FEW
FltCat VFR VFR VFR VFR VFR VFR
WX -- -- -- -- -- --
WDir 260 260 260 260 260 260
WSpd 10 10 10 10 10 10
WGst -- -- -- -- -- --
Raw TAF
KLGA 152343Z 1600/1706 22012G22KT P6SM -SHRA OVC015
  FM160200 24014G25KT P6SM -SHRA FEW025 SCT050 BKN100
  TEMPO 1602/1603 26025G35KT 2SM TSRA BKN015CB
  FM160300 29020G32KT P6SM SCT015 BKN050
  FM160700 30018G26KT P6SM FEW035 BKN090
  FM160900 32016G23KT P6SM FEW035 SCT120 SCT250
  FM161200 32011G19KT P6SM FEW035
  FM161600 29009KT P6SM FEW035
  FM161800 26010KT P6SM FEW035


METAR Board
Radar Display
Forecast Discussion
For situational awareness. Not to be used for flight planning purposes.